createdAt,value
2022-08-03T00:03:52.823Z,22.98
2022-08-03T00:06:42.708Z,22.88
2022-08-03T00:09:35.847Z,22.85
2022-08-03T00:12:21.962Z,22.90
2022-08-03T00:15:16.303Z,22.70
2022-08-03T00:18:02.517Z,22.79
2022-08-03T00:23:51.753Z,22.49
2022-08-03T00:26:29.296Z,22.42
2022-08-03T00:32:05.938Z,22.60
2022-08-03T00:37:42.859Z,22.61
2022-08-03T00:43:12.310Z,22.37
2022-08-03T00:48:48.527Z,22.36
2022-08-03T00:51:37.770Z,22.49
2022-08-03T00:57:17.162Z,22.42
2022-08-03T01:00:18.625Z,22.14
2022-08-03T01:05:59.335Z,22.14
2022-08-03T01:11:33.230Z,22.12
2022-08-03T01:17:29.480Z,22.00
2022-08-03T01:20:19.449Z,21.97
2022-08-03T01:23:22.771Z,21.93
2022-08-03T01:29:13.451Z,21.91
2022-08-03T01:34:47.342Z,21.82
2022-08-03T01:37:39.744Z,21.75
2022-08-03T01:43:55.161Z,21.93
2022-08-03T01:49:00.840Z,21.78
2022-08-03T01:54:40.868Z,21.64
2022-08-03T01:57:30.839Z,21.60
2022-08-03T02:03:10.978Z,21.62
2022-08-03T02:06:56.804Z,21.52
2022-08-03T02:11:37.459Z,21.59
2022-08-03T02:14:27.053Z,21.51
2022-08-03T02:17:16.496Z,21.49
2022-08-03T02:20:05.766Z,21.48
2022-08-03T02:22:54.517Z,21.49
2022-08-03T02:28:33.259Z,21.55
2022-08-03T02:34:15.428Z,21.56
2022-08-03T02:37:06.519Z,21.50
2022-08-03T02:42:44.755Z,21.27
2022-08-03T02:45:36.628Z,21.05
2022-08-03T02:48:28.248Z,21.23
2022-08-03T02:51:18.017Z,21.09
2022-08-03T02:54:08.128Z,21.08
2022-08-03T02:56:58.396Z,21.11
2022-08-03T03:02:39.860Z,21.15
2022-08-03T03:05:55.516Z,21.08
2022-08-03T03:08:26.825Z,21.05
2022-08-03T03:14:02.512Z,21.11
2022-08-03T03:16:52.600Z,20.99
2022-08-03T03:19:45.282Z,20.98
2022-08-03T03:22:35.947Z,21.04
2022-08-03T03:25:24.120Z,21.08
2022-08-03T03:31:01.555Z,21.09
2022-08-03T03:36:36.404Z,20.89
2022-08-03T03:39:24.957Z,20.83
2022-08-03T03:45:01.725Z,20.90
2022-08-03T03:47:50.590Z,20.84
2022-08-03T03:50:40.790Z,20.83
2022-08-03T03:53:29.309Z,20.79
2022-08-03T03:56:17.649Z,20.75
2022-08-03T04:01:58.999Z,20.76
2022-08-03T04:07:52.190Z,20.95
2022-08-03T04:13:33.073Z,20.75
2022-08-03T04:22:00.490Z,20.64
2022-08-03T04:27:39.557Z,20.70
2022-08-03T04:30:29.224Z,20.69
2022-08-03T04:36:10.734Z,20.82
2022-08-03T04:39:04.046Z,20.72
2022-08-03T04:44:46.792Z,20.78
2022-08-03T04:47:35.734Z,20.81
2022-08-03T04:50:24.745Z,20.87
2022-08-03T04:56:06.838Z,21.02
2022-08-03T04:58:55.783Z,20.96
2022-08-03T05:01:44.911Z,21.01
2022-08-03T05:07:24.824Z,22.76
2022-08-03T05:10:15.822Z,23.81
2022-08-03T05:15:50.849Z,26.52
2022-08-03T05:21:26.802Z,28.05
2022-08-03T05:24:19.859Z,28.14
2022-08-03T05:27:09.029Z,28.52
2022-08-03T05:32:46.165Z,28.88
2022-08-03T05:38:28.303Z,29.26
2022-08-03T05:41:20.962Z,29.42
2022-08-03T05:44:04.926Z,29.40
2022-08-03T05:49:40.004Z,29.62
2022-08-03T05:52:28.414Z,29.93
2022-08-03T05:55:20.876Z,29.92
2022-08-03T06:00:49.706Z,29.79
2022-08-03T06:03:38.260Z,29.70
2022-08-03T06:06:30.526Z,29.87
2022-08-03T06:09:16.939Z,29.98
2022-08-03T06:12:06.170Z,29.76
2022-08-03T06:14:54.507Z,29.53
2022-08-03T06:20:29.179Z,30.13
2022-08-03T06:23:18.610Z,30.15
2022-08-03T06:26:07.980Z,30.03
2022-08-03T06:31:38.373Z,30.35
2022-08-03T06:34:34.182Z,30.39
2022-08-03T06:40:08.986Z,30.33
2022-08-03T06:42:59.640Z,30.33
2022-08-03T06:45:48.169Z,30.19
2022-08-03T06:51:23.625Z,30.39
2022-08-03T06:54:13.902Z,30.27
2022-08-03T07:00:08.708Z,30.12
2022-08-03T07:02:31.633Z,30.18
2022-08-03T07:08:08.092Z,30.23
2022-08-03T07:13:42.078Z,30.16
2022-08-03T07:16:31.287Z,29.97
2022-08-03T07:22:08.709Z,29.96
2022-08-03T07:25:00.993Z,29.96
2022-08-03T07:30:35.870Z,29.73
2022-08-03T07:36:10.818Z,29.44
2022-08-03T07:41:38.481Z,29.80
2022-08-03T07:44:28.318Z,29.58
2022-08-03T07:47:22.485Z,29.62
2022-08-03T07:52:55.223Z,29.98
2022-08-03T07:55:43.583Z,29.61
2022-08-03T08:01:22.720Z,29.84
2022-08-03T08:04:12.114Z,29.98
2022-08-03T08:07:00.552Z,29.78
2022-08-03T08:12:41.275Z,29.78
2022-08-03T08:15:30.334Z,29.90
2022-08-03T08:18:19.814Z,29.98
2022-08-03T08:21:08.722Z,30.21
2022-08-03T08:23:58.102Z,29.75
2022-08-03T08:26:46.479Z,29.38
2022-08-03T08:29:35.172Z,29.96
2022-08-03T08:32:25.666Z,29.95
2022-08-03T08:35:14.934Z,29.93
2022-08-03T08:38:05.717Z,29.77
2022-08-03T08:40:55.420Z,29.97
2022-08-03T08:43:44.420Z,29.48
2022-08-03T08:46:34.331Z,29.73
2022-08-03T08:52:32.036Z,29.70
2022-08-03T08:55:23.500Z,29.27
2022-08-03T08:58:13.644Z,29.06
2022-08-03T09:03:51.617Z,29.16
2022-08-03T09:10:10.875Z,29.74
2022-08-03T09:12:40.597Z,29.95
2022-08-03T09:15:20.350Z,29.95
2022-08-03T09:18:12.355Z,29.71
2022-08-03T09:24:31.229Z,29.57
2022-08-03T09:29:56.686Z,29.85
2022-08-03T09:41:20.134Z,30.01
2022-08-03T09:46:57.036Z,29.84
2022-08-03T09:52:49.304Z,30.13
2022-08-03T09:58:09.562Z,30.26
2022-08-03T10:04:04.311Z,30.51
2022-08-03T10:09:28.680Z,30.74
2022-08-03T10:15:05.805Z,30.59
2022-08-03T10:20:38.121Z,30.51
2022-08-03T10:23:31.833Z,30.67
2022-08-03T10:29:12.356Z,30.94
2022-08-03T10:34:44.545Z,30.90
2022-08-03T10:37:33.452Z,30.93
2022-08-03T10:43:28.863Z,31.37
2022-08-03T10:49:05.821Z,31.62
2022-08-03T10:51:54.548Z,31.43
2022-08-03T10:55:03.341Z,31.60
2022-08-03T10:57:58.647Z,31.92
2022-08-03T11:04:04.820Z,32.04
2022-08-03T11:07:10.136Z,32.14
2022-08-03T11:12:44.844Z,31.89
2022-08-03T11:18:22.911Z,32.40
2022-08-03T11:24:05.073Z,32.56
2022-08-03T11:29:42.098Z,32.96
2022-08-03T11:33:13.079Z,32.95
2022-08-03T11:36:02.739Z,32.63
2022-08-03T11:42:24.570Z,33.09
2022-08-03T11:47:52.628Z,33.15
2022-08-03T11:50:41.293Z,33.04
2022-08-03T11:53:29.714Z,33.15
2022-08-03T11:59:20.750Z,33.19
2022-08-03T12:04:52.863Z,33.39
2022-08-03T12:10:32.433Z,33.34
2022-08-03T12:16:05.108Z,33.38
2022-08-03T12:18:57.961Z,33.25
2022-08-03T12:21:57.235Z,33.15
2022-08-03T12:27:33.340Z,33.58
2022-08-03T12:33:24.285Z,33.57
2022-08-03T12:36:12.938Z,33.74
2022-08-03T12:41:47.061Z,33.82
2022-08-03T12:44:36.783Z,33.39
2022-08-03T12:50:16.439Z,33.75
2022-08-03T12:56:05.099Z,33.66
2022-08-03T12:58:48.255Z,33.89
2022-08-03T13:01:55.211Z,33.42
2022-08-03T13:04:33.226Z,33.40
2022-08-03T13:07:23.033Z,33.40
2022-08-03T13:10:11.987Z,33.55
2022-08-03T13:15:38.755Z,33.53
2022-08-03T13:18:28.076Z,33.47
2022-08-03T13:24:04.294Z,33.84
2022-08-03T13:29:40.336Z,33.84
2022-08-03T13:35:16.660Z,34.09
2022-08-03T13:38:04.938Z,34.14
2022-08-03T13:43:40.720Z,34.23
2022-08-03T13:46:29.317Z,34.15
2022-08-03T13:52:06.365Z,34.07
2022-08-03T13:58:02.560Z,34.17
2022-08-03T14:03:24.182Z,34.07
2022-08-03T14:09:00.667Z,34.17
2022-08-03T14:12:08.203Z,34.11
2022-08-03T14:17:30.108Z,33.86
2022-08-03T14:20:36.498Z,33.67
2022-08-03T14:25:59.593Z,33.83
2022-08-03T14:28:48.281Z,33.82
2022-08-03T14:32:09.440Z,33.85
2022-08-03T14:34:27.379Z,33.98
2022-08-03T14:37:16.270Z,34.15
2022-08-03T14:40:05.488Z,34.15
2022-08-03T14:46:06.812Z,33.93
2022-08-03T14:50:32.447Z,33.85
2022-08-03T14:54:35.665Z,34.13
2022-08-03T14:57:25.115Z,33.97
2022-08-03T15:00:15.327Z,34.02
2022-08-03T15:06:02.465Z,33.98
2022-08-03T15:09:22.690Z,33.73
2022-08-03T15:11:41.009Z,33.71
2022-08-03T15:17:18.666Z,33.91
2022-08-03T15:20:27.863Z,33.91
2022-08-03T15:23:00.605Z,33.98
2022-08-03T15:28:52.523Z,34.14
2022-08-03T15:31:41.741Z,34.01
2022-08-03T15:34:31.207Z,34.05
2022-08-03T15:40:17.606Z,33.97
2022-08-03T15:43:05.937Z,33.91
2022-08-03T15:46:26.630Z,33.78
2022-08-03T15:51:44.670Z,33.80
2022-08-03T15:54:34.231Z,33.82
2022-08-03T16:00:10.930Z,33.88
2022-08-03T16:05:39.699Z,33.94
2022-08-03T16:08:28.502Z,33.75
2022-08-03T16:14:32.038Z,33.89
2022-08-03T16:19:43.734Z,33.82
2022-08-03T16:25:16.369Z,33.85
2022-08-03T16:30:52.285Z,33.69
2022-08-03T16:36:24.771Z,33.44
2022-08-03T16:39:15.736Z,33.39
2022-08-03T16:44:54.968Z,33.53
2022-08-03T16:47:43.276Z,33.50
2022-08-03T16:50:33.711Z,33.48
2022-08-03T16:58:50.747Z,33.55
2022-08-03T17:04:40.013Z,33.40
2022-08-03T17:07:30.710Z,33.49
2022-08-03T17:10:22.080Z,33.21
2022-08-03T17:13:10.580Z,33.25
2022-08-03T17:18:50.173Z,33.22
2022-08-03T17:24:29.953Z,33.10
2022-08-03T17:32:57.901Z,32.95
2022-08-03T17:38:34.734Z,32.87
2022-08-03T17:44:15.382Z,33.06
2022-08-03T18:16:02.311Z,31.41
2022-08-03T18:22:02.070Z,31.22
2022-08-03T18:24:28.788Z,31.11
2022-08-03T18:35:53.882Z,30.49
2022-08-03T18:41:31.859Z,30.28
2022-08-03T18:47:08.129Z,30.08
2022-08-03T18:52:53.138Z,29.95
2022-08-03T18:58:28.878Z,29.72
2022-08-03T19:04:12.934Z,29.58
2022-08-03T19:07:04.207Z,29.48
2022-08-03T19:09:57.462Z,29.41
2022-08-03T19:15:41.544Z,29.28
2022-08-03T19:21:15.504Z,29.27
2022-08-03T19:24:06.588Z,29.22
2022-08-03T19:30:00.122Z,29.06
2022-08-03T19:32:32.403Z,29.06
2022-08-03T19:38:27.636Z,28.97
2022-08-03T19:53:19.040Z,28.93
2022-08-03T20:08:02.108Z,28.65
2022-08-03T20:10:51.264Z,28.53
2022-08-03T20:16:32.632Z,28.35
2022-08-03T20:19:21.772Z,28.21
2022-08-03T20:22:14.518Z,28.06
2022-08-03T20:28:07.815Z,27.98
2022-08-03T20:36:27.981Z,27.78
2022-08-03T20:42:05.453Z,27.57
2022-08-03T20:47:57.772Z,27.44
2022-08-03T20:57:28.230Z,27.19
2022-08-03T21:03:03.771Z,27.07
2022-08-03T21:05:55.060Z,26.99
2022-08-03T21:08:48.804Z,26.92
2022-08-03T21:13:07.090Z,27.91
2022-08-03T21:14:43.077Z,26.87
2022-08-03T21:17:41.672Z,26.77
2022-08-03T21:23:40.304Z,26.75
2022-08-03T21:29:00.438Z,26.71
2022-08-03T21:31:50.485Z,26.62
2022-08-03T21:37:27.331Z,26.54
2022-08-03T21:43:05.550Z,26.49
2022-08-03T21:50:02.683Z,26.49
2022-08-03T21:54:42.653Z,26.37
2022-08-03T22:00:33.931Z,26.32
2022-08-03T22:06:19.532Z,26.18
2022-08-03T22:11:54.822Z,26.12
2022-08-03T22:17:55.106Z,25.99
2022-08-03T22:23:16.421Z,25.98
2022-08-03T22:26:05.923Z,25.90
2022-08-03T22:31:57.979Z,25.83
2022-08-03T22:34:35.245Z,25.81
2022-08-03T22:37:26.033Z,25.81
2022-08-03T22:40:17.115Z,25.72
2022-08-03T22:43:07.362Z,25.71
2022-08-03T22:46:09.616Z,25.65
2022-08-03T22:54:16.301Z,25.57
2022-08-03T22:57:07.922Z,25.61
2022-08-03T23:02:37.422Z,25.47
2022-08-03T23:06:01.350Z,25.37
2022-08-03T23:08:25.132Z,25.31
2022-08-03T23:14:08.279Z,25.27
2022-08-03T23:16:58.176Z,25.31
2022-08-03T23:19:47.281Z,25.31
2022-08-03T23:25:23.050Z,25.28
2022-08-03T23:28:12.832Z,25.08
2022-08-03T23:33:54.201Z,25.14
2022-08-03T23:36:43.375Z,25.13
2022-08-03T23:42:35.697Z,25.20
2022-08-03T23:51:10.468Z,25.11
2022-08-03T23:56:58.515Z,25.05
